Hobbs, NM

2:56 PM MST on November 28, 2014 (GMT -0700)
NW Hobbs NM | Change Station
CLOSE
Current Station
Personal Weather Station
Location: Hobbs, NM
Elevation: 3637 ft
Nearby Weather Stations

Elev 3637 ft 32.74 °N, 103.15 °W | Updated 1 second ago

Clear
Clear
72.5 °F
Feels Like 74 °F
N
4.0
Wind Variable Wind from SW
Gusts 14.0 mph

Today
High -- | Low -- °F
--% Chance of Precip.
Yesterday
High -- | Low -- °F
Precip. -- in
6:34 AM 4:46 PM
Waxing Crescent, 44% visible
Pressure 30.03 in
Visibility 10.0 miles
Clouds Clear
Heat Index 74 °F
Dew Point 25 °F
Humidity 17%
Rainfall 0.00 in
Snow Depth Not available.
UV 1 out of 12
Pollen 5.10 out of 12
Air Quality Not available.
Flu Activity Not available.
METAR KHOB 282150Z 21011KT 10SM SKC 22/M06 A3003

More Conditions Fewer Conditions

Pressure 30.03 in
Visibility 10.0 miles
Clouds Clear
Heat Index 74 °F
Dew Point 25 °F
Humidity 17%
Rainfall 0.00 in
Snow Depth Not available.
UV 1 out of 12
Pollen 5.10 out of 12
Air Quality Not available.
Flu Activity Not available.
METAR KHOB 282150Z 21011KT 10SM SKC 22/M06 A3003

More Conditions Fewer Conditions

10-Day Weather Forecast

Almanac

Astronomy

Nov. 28, 2014 Rise Set
Actual Time
Civil Twilight
Nautical Twilight
Astronomical Twilight
Moon
Length of Visible Light
Length of Day
Tomorrow will be .
, % of the Moon is Illuminated

Today's Extremes

State Highs State Lows

Community

WunderPhotos

Upload Photos

1,774,310 photos uploaded!

WunderBlogs® & News

Nearby

Air Quality

  Air Quality AQ Index Pollutant
Not available.

Snow Depth

Station Depth Elevation

Earthquake Activity

City Distance Mag. Time & Date
Minimum magnitude displayed is 2.5.

Coastal Water Temperatures

Place Temperature

Nearby Weather Stations